Palm Beach, FL (33480)

8:41 AM EDT on July 06, 2015 (GMT -0400)
Rybovich Boat Company | | Change Station
CLOSE
Current Station
Personal Weather Station
Location: West Palm Beach, FL
Elevation: 10 ft
Nearby Weather Stations

Elev 10 ft 26.75 °N, 80.05 °W | Updated 8 seconds ago

Mostly Cloudy
Mostly Cloudy
80.1 °F
Feels Like 85 °F
N
4.0
Wind Variable Wind from NNW
Gusts 5.0 mph

Today
High -- | Low -- °F
--% Chance of Precip.
Yesterday
High -- | Low -- °F
Precip. -- in
6:32 AM 8:17 PM
Waning Gibbous, 76% visible
Pressure 30.16 in
Visibility 10.0 miles
Clouds Few 2500 ft
Scattered Clouds 8000 ft
Mostly Cloudy 22000 ft
Heat Index 85 °F
Dew Point 73 °F
Humidity 82%
Rainfall 0.05 in
Snow Depth Not available.
UV 1 out of 12
Pollen 4.60 out of 12
Air Quality Not available.
Flu Activity Not available.
METAR KPBI 061153Z 32007KT 10SM FEW025 SCT080 BKN220 26/22 A3016 RMK AO2 SLP213 T02560222 10278 20228 53020 $

More Conditions Fewer Conditions

Pressure 30.16 in
Visibility 10.0 miles
Clouds Few 2500 ft
Scattered Clouds 8000 ft
Mostly Cloudy 22000 ft
Heat Index 85 °F
Dew Point 73 °F
Humidity 82%
Rainfall 0.05 in
Snow Depth Not available.
UV 1 out of 12
Pollen 4.60 out of 12
Air Quality Not available.
Flu Activity Not available.
METAR KPBI 061153Z 32007KT 10SM FEW025 SCT080 BKN220 26/22 A3016 RMK AO2 SLP213 T02560222 10278 20228 53020 $

More Conditions Fewer Conditions

10-Day Weather Forecast

×

Almanac

Astronomy

Jul. 06, 2015 Rise Set
Actual Time
Civil Twilight
Nautical Twilight
Astronomical Twilight
Moon
Length of Visible Light
Length of Day
Tomorrow will be .
, % of the Moon is Illuminated

Today's Extremes

State Highs State Lows

Community

WunderPhotos

Upload Photos

1,835,548 photos uploaded!

WunderBlogs® & News

Nearby

Air Quality

  Air Quality AQ Index Pollutant
Not available.

Snow Depth

Station Depth Elevation

Earthquake Activity

City Distance Mag. Time & Date
Minimum magnitude displayed is 2.5.

Coastal Water Temperatures

Place Temperature

Stations

Nearby Weather Stations

Station Location Temp. Windchill Dew Point Humidity Wind Precip. Elev Updated Type